This is the latest recevied weather packets stored in our database for station/object DL9GJ-6. If no packets are shown the sender has not sent any weather packets the latest 10 day(s).
| Time | Temp. | Humidity | Pressure | Rain* | Wind** | Luminosity | Snow |
|---|---|---|---|---|---|---|---|
| 1777703169 | 8.89° C | 75% | 1023 hPa | 0 mm | - | 377 W/m² | - |
| 1777702811 | 8.89° C | 77% | 1022.9 hPa | 0 mm | - | 361 W/m² | - |
| 1777702451 | 7.78° C | 81% | 1023 hPa | 0 mm | - | 332 W/m² | - |
| 1777702090 | 7.22° C | 83% | 1023 hPa | 0 mm | - | 318 W/m² | - |
| 1777701736 | 6.67° C | 84% | 1022.9 hPa | 0 mm | - | 302 W/m² | - |
| 1777701013 | 6.11° C | 86% | 1023 hPa | 0 mm | - | 271 W/m² | - |
| 1777700649 | 5° C | 88% | 1022.9 hPa | 0 mm | - | 239 W/m² | - |
| 1777699570 | 3.33° C | 90% | 1022.9 hPa | 0 mm | - | 189 W/m² | - |
| 1777699213 | 3.33° C | 90% | 1022.9 hPa | 0 mm | - | 160 W/m² | - |
| 1777698129 | 2.78° C | 89% | 1022.9 hPa | 0 mm | - | 25 W/m² | - |
| 1777697770 | 2.22° C | 89% | 1022.9 hPa | 0 mm | - | 23 W/m² | - |
| 1777697410 | 2.22° C | 89% | 1022.9 hPa | 0 mm | - | 21 W/m² | - |
| 1777697050 | 2.22° C | 89% | 1022.9 hPa | 0 mm | - | 17 W/m² | - |
| 1777696690 | 2.22° C | 89% | 1022.9 hPa | 0 mm | - | 15 W/m² | - |
| 1777695611 | 2.22° C | 88% | 1022.9 hPa | 0 mm | - | 10 W/m² | - |
| 1777694891 | 2.22° C | 88% | 1022.9 hPa | 0 mm | - | 4 W/m² | - |
| 1777693812 | 2.22° C | 88% | 1022.6 hPa | 0 mm | - | 0 W/m² | - |
| 1777693450 | 2.78° C | 88% | 1022.7 hPa | 0 mm | - | 0 W/m² | - |
| 1777693090 | 2.78° C | 87% | 1022.7 hPa | 0 mm | - | 0 W/m² | - |
| 1777692010 | 2.78° C | 87% | 1022.7 hPa | 0 mm | - | 0 W/m² | - |
| 1777691650 | 3.33° C | 87% | 1022.7 hPa | 0 mm | - | 0 W/m² | - |
| 1777690929 | 3.33° C | 87% | 1022.7 hPa | 0 mm | - | 0 W/m² | - |
| 1777690209 | 3.33° C | 86% | 1022.8 hPa | 0 mm | - | 0 W/m² | - |
| 1777689852 | 3.33° C | 85% | 1022.8 hPa | 0 mm | - | 0 W/m² | - |
| 1777689489 | 3.33° C | 85% | 1023 hPa | 0 mm | - | 0 W/m² | - |
* Rain latest hour (hover to see other rain measurements)
** Current wind speed in m/s (hover to see current wind gust speed)